sensor_id;sensor_type;location;lat;lon;timestamp;P1;durP1;ratioP1;P2;durP2;ratioP2
68942;SDS011;60852;52.190;4.422;2022-12-18T00:01:42;67.74;;;60.18;;
68942;SDS011;60852;52.190;4.422;2022-12-18T00:04:14;71.03;;;61.67;;
68942;SDS011;60852;52.190;4.422;2022-12-18T00:06:45;68.64;;;59.88;;
68942;SDS011;60852;52.190;4.422;2022-12-18T00:09:11;66.64;;;58.71;;
68942;SDS011;60852;52.190;4.422;2022-12-18T00:11:36;67.45;;;59.30;;
68942;SDS011;60852;52.190;4.422;2022-12-18T00:14:02;67.21;;;59.61;;
68942;SDS011;60852;52.190;4.422;2022-12-18T00:16:28;67.58;;;60.04;;
68942;SDS011;60852;52.190;4.422;2022-12-18T00:18:55;65.56;;;58.11;;
68942;SDS011;60852;52.190;4.422;2022-12-18T00:21:25;63.38;;;56.64;;
68942;SDS011;60852;52.190;4.422;2022-12-18T00:23:52;64.55;;;57.65;;
68942;SDS011;60852;52.190;4.422;2022-12-18T00:26:25;66.00;;;58.53;;
68942;SDS011;60852;52.190;4.422;2022-12-18T00:28:53;68.44;;;60.27;;
68942;SDS011;60852;52.190;4.422;2022-12-18T00:31:22;69.13;;;60.28;;
68942;SDS011;60852;52.190;4.422;2022-12-18T00:33:49;68.24;;;60.20;;
68942;SDS011;60852;52.190;4.422;2022-12-18T00:36:16;70.15;;;61.31;;
68942;SDS011;60852;52.190;4.422;2022-12-18T00:38:44;68.06;;;60.16;;
68942;SDS011;60852;52.190;4.422;2022-12-18T00:41:10;68.38;;;59.91;;
68942;SDS011;60852;52.190;4.422;2022-12-18T00:43:38;69.49;;;59.89;;
68942;SDS011;60852;52.190;4.422;2022-12-18T00:46:04;64.27;;;57.00;;
68942;SDS011;60852;52.190;4.422;2022-12-18T00:48:31;64.98;;;57.51;;
68942;SDS011;60852;52.190;4.422;2022-12-18T00:50:56;65.54;;;57.68;;
68942;SDS011;60852;52.190;4.422;2022-12-18T00:53:22;64.72;;;57.21;;
68942;SDS011;60852;52.190;4.422;2022-12-18T00:55:47;62.70;;;55.85;;
68942;SDS011;60852;52.190;4.422;2022-12-18T00:58:14;63.46;;;55.67;;
68942;SDS011;60852;52.190;4.422;2022-12-18T01:00:42;63.56;;;56.88;;
68942;SDS011;60852;52.190;4.422;2022-12-18T01:03:09;62.57;;;56.07;;
68942;SDS011;60852;52.190;4.422;2022-12-18T01:05:39;63.60;;;56.35;;
68942;SDS011;60852;52.190;4.422;2022-12-18T01:08:05;63.87;;;56.73;;
68942;SDS011;60852;52.190;4.422;2022-12-18T01:10:30;63.78;;;57.37;;
68942;SDS011;60852;52.190;4.422;2022-12-18T01:12:56;64.37;;;57.74;;
68942;SDS011;60852;52.190;4.422;2022-12-18T01:15:21;65.73;;;58.18;;
68942;SDS011;60852;52.190;4.422;2022-12-18T01:17:46;63.20;;;56.97;;
68942;SDS011;60852;52.190;4.422;2022-12-18T01:20:12;63.56;;;56.66;;
68942;SDS011;60852;52.190;4.422;2022-12-18T01:22:38;61.44;;;55.02;;
68942;SDS011;60852;52.190;4.422;2022-12-18T01:25:04;62.73;;;56.19;;
68942;SDS011;60852;52.190;4.422;2022-12-18T01:27:31;61.81;;;55.26;;
68942;SDS011;60852;52.190;4.422;2022-12-18T01:29:58;65.46;;;57.10;;
68942;SDS011;60852;52.190;4.422;2022-12-18T01:32:23;69.83;;;60.25;;
68942;SDS011;60852;52.190;4.422;2022-12-18T01:34:49;68.98;;;60.02;;
68942;SDS011;60852;52.190;4.422;2022-12-18T01:37:14;68.49;;;59.31;;
68942;SDS011;60852;52.190;4.422;2022-12-18T01:39:40;70.67;;;60.40;;
68942;SDS011;60852;52.190;4.422;2022-12-18T01:42:10;69.11;;;59.84;;
68942;SDS011;60852;52.190;4.422;2022-12-18T01:44:54;68.53;;;58.96;;
68942;SDS011;60852;52.190;4.422;2022-12-18T01:47:38;69.79;;;60.17;;
68942;SDS011;60852;52.190;4.422;2022-12-18T01:52:54;68.91;;;59.23;;
68942;SDS011;60852;52.190;4.422;2022-12-18T01:55:26;69.40;;;58.85;;
68942;SDS011;60852;52.190;4.422;2022-12-18T01:57:56;64.80;;;56.00;;
68942;SDS011;60852;52.190;4.422;2022-12-18T02:00:25;64.59;;;56.05;;
68942;SDS011;60852;52.190;4.422;2022-12-18T02:02:52;61.99;;;54.03;;
68942;SDS011;60852;52.190;4.422;2022-12-18T02:05:23;61.77;;;53.72;;
68942;SDS011;60852;52.190;4.422;2022-12-18T02:11:20;60.97;;;53.05;;
68942;SDS011;60852;52.190;4.422;2022-12-18T02:13:57;62.90;;;54.68;;
68942;SDS011;60852;52.190;4.422;2022-12-18T02:16:33;67.83;;;59.48;;
68942;SDS011;60852;52.190;4.422;2022-12-18T02:22:13;59.91;;;52.53;;
68942;SDS011;60852;52.190;4.422;2022-12-18T02:25:24;62.06;;;53.59;;
68942;SDS011;60852;52.190;4.422;2022-12-18T02:28:14;61.66;;;53.71;;
68942;SDS011;60852;52.190;4.422;2022-12-18T02:30:46;63.29;;;54.68;;
68942;SDS011;60852;52.190;4.422;2022-12-18T02:33:15;66.43;;;57.15;;
68942;SDS011;60852;52.190;4.422;2022-12-18T02:35:45;65.55;;;56.86;;
68942;SDS011;60852;52.190;4.422;2022-12-18T02:38:14;62.72;;;54.25;;
68942;SDS011;60852;52.190;4.422;2022-12-18T02:40:42;63.34;;;54.19;;
68942;SDS011;60852;52.190;4.422;2022-12-18T02:43:12;73.06;;;62.74;;
68942;SDS011;60852;52.190;4.422;2022-12-18T02:45:53;54.64;;;48.62;;
68942;SDS011;60852;52.190;4.422;2022-12-18T02:48:26;59.96;;;52.36;;
68942;SDS011;60852;52.190;4.422;2022-12-18T02:51:08;60.86;;;52.62;;
68942;SDS011;60852;52.190;4.422;2022-12-18T02:53:51;58.07;;;51.53;;
68942;SDS011;60852;52.190;4.422;2022-12-18T02:56:26;58.02;;;50.73;;
68942;SDS011;60852;52.190;4.422;2022-12-18T03:01:28;50.18;;;45.81;;
68942;SDS011;60852;52.190;4.422;2022-12-18T03:03:59;52.88;;;46.72;;
68942;SDS011;60852;52.190;4.422;2022-12-18T03:06:41;50.50;;;45.60;;
68942;SDS011;60852;52.190;4.422;2022-12-18T03:09:22;50.90;;;45.80;;
68942;SDS011;60852;52.190;4.422;2022-12-18T03:12:04;48.87;;;44.42;;
68942;SDS011;60852;52.190;4.422;2022-12-18T03:15:10;48.24;;;43.70;;
68942;SDS011;60852;52.190;4.422;2022-12-18T03:17:52;49.05;;;44.26;;
68942;SDS011;60852;52.190;4.422;2022-12-18T03:20:24;48.10;;;44.14;;
68942;SDS011;60852;52.190;4.422;2022-12-18T03:22:57;50.42;;;45.15;;
68942;SDS011;60852;52.190;4.422;2022-12-18T03:25:32;49.06;;;44.34;;
68942;SDS011;60852;52.190;4.422;2022-12-18T03:28:04;48.82;;;44.40;;
68942;SDS011;60852;52.190;4.422;2022-12-18T03:30:37;48.11;;;43.58;;
68942;SDS011;60852;52.190;4.422;2022-12-18T03:35:50;47.02;;;42.74;;
68942;SDS011;60852;52.190;4.422;2022-12-18T03:38:16;48.24;;;43.75;;
68942;SDS011;60852;52.190;4.422;2022-12-18T03:43:33;57.42;;;51.16;;
68942;SDS011;60852;52.190;4.422;2022-12-18T03:46:17;49.37;;;44.35;;
68942;SDS011;60852;52.190;4.422;2022-12-18T03:48:52;51.62;;;45.95;;
68942;SDS011;60852;52.190;4.422;2022-12-18T03:54:00;49.27;;;44.02;;
68942;SDS011;60852;52.190;4.422;2022-12-18T03:56:31;50.06;;;44.98;;
68942;SDS011;60852;52.190;4.422;2022-12-18T03:59:02;47.76;;;43.92;;
68942;SDS011;60852;52.190;4.422;2022-12-18T04:01:32;49.19;;;44.55;;
68942;SDS011;60852;52.190;4.422;2022-12-18T04:04:02;48.79;;;44.33;;
68942;SDS011;60852;52.190;4.422;2022-12-18T04:06:31;47.62;;;43.36;;
68942;SDS011;60852;52.190;4.422;2022-12-18T04:09:00;52.44;;;46.98;;
68942;SDS011;60852;52.190;4.422;2022-12-18T04:11:26;52.31;;;46.79;;
68942;SDS011;60852;52.190;4.422;2022-12-18T04:13:56;52.54;;;46.89;;
68942;SDS011;60852;52.190;4.422;2022-12-18T04:16:23;52.71;;;47.37;;
68942;SDS011;60852;52.190;4.422;2022-12-18T04:18:49;52.90;;;47.29;;
68942;SDS011;60852;52.190;4.422;2022-12-18T04:21:15;51.24;;;46.05;;
68942;SDS011;60852;52.190;4.422;2022-12-18T04:23:40;53.75;;;47.70;;
68942;SDS011;60852;52.190;4.422;2022-12-18T04:26:06;52.14;;;47.26;;
68942;SDS011;60852;52.190;4.422;2022-12-18T04:28:31;53.19;;;47.47;;
68942;SDS011;60852;52.190;4.422;2022-12-18T04:30:57;53.91;;;47.63;;
68942;SDS011;60852;52.190;4.422;2022-12-18T04:33:22;52.92;;;47.50;;
68942;SDS011;60852;52.190;4.422;2022-12-18T04:35:48;53.51;;;48.08;;
68942;SDS011;60852;52.190;4.422;2022-12-18T04:38:13;51.14;;;46.25;;
68942;SDS011;60852;52.190;4.422;2022-12-18T04:40:39;52.19;;;47.11;;
68942;SDS011;60852;52.190;4.422;2022-12-18T04:43:04;51.82;;;46.75;;
68942;SDS011;60852;52.190;4.422;2022-12-18T04:45:31;52.44;;;46.84;;
68942;SDS011;60852;52.190;4.422;2022-12-18T04:48:00;51.10;;;46.04;;
68942;SDS011;60852;52.190;4.422;2022-12-18T04:50:28;52.42;;;47.48;;
68942;SDS011;60852;52.190;4.422;2022-12-18T04:52:54;52.54;;;47.16;;
68942;SDS011;60852;52.190;4.422;2022-12-18T04:55:19;51.29;;;45.86;;
68942;SDS011;60852;52.190;4.422;2022-12-18T04:57:45;53.50;;;48.07;;
68942;SDS011;60852;52.190;4.422;2022-12-18T05:00:11;52.77;;;47.34;;
68942;SDS011;60852;52.190;4.422;2022-12-18T05:02:36;55.48;;;48.91;;
68942;SDS011;60852;52.190;4.422;2022-12-18T05:05:02;54.28;;;48.59;;
68942;SDS011;60852;52.190;4.422;2022-12-18T05:07:28;53.16;;;47.68;;
68942;SDS011;60852;52.190;4.422;2022-12-18T05:09:53;55.14;;;48.71;;
68942;SDS011;60852;52.190;4.422;2022-12-18T05:12:18;54.46;;;48.32;;
68942;SDS011;60852;52.190;4.422;2022-12-18T05:14:44;54.81;;;48.29;;
68942;SDS011;60852;52.190;4.422;2022-12-18T05:17:09;54.56;;;48.47;;
68942;SDS011;60852;52.190;4.422;2022-12-18T05:19:38;54.47;;;47.98;;
68942;SDS011;60852;52.190;4.422;2022-12-18T05:22:03;54.93;;;48.22;;
68942;SDS011;60852;52.190;4.422;2022-12-18T05:24:32;53.40;;;47.48;;
68942;SDS011;60852;52.190;4.422;2022-12-18T05:26:57;50.78;;;46.50;;
68942;SDS011;60852;52.190;4.422;2022-12-18T05:29:23;50.52;;;46.04;;
68942;SDS011;60852;52.190;4.422;2022-12-18T05:31:48;51.08;;;45.87;;
68942;SDS011;60852;52.190;4.422;2022-12-18T05:34:14;49.55;;;45.18;;
68942;SDS011;60852;52.190;4.422;2022-12-18T05:36:39;50.81;;;46.13;;
68942;SDS011;60852;52.190;4.422;2022-12-18T05:39:05;50.02;;;45.35;;
68942;SDS011;60852;52.190;4.422;2022-12-18T05:41:31;50.07;;;45.63;;
68942;SDS011;60852;52.190;4.422;2022-12-18T05:43:56;49.50;;;44.90;;
68942;SDS011;60852;52.190;4.422;2022-12-18T05:46:23;48.73;;;44.39;;
68942;SDS011;60852;52.190;4.422;2022-12-18T05:48:49;46.84;;;43.20;;
68942;SDS011;60852;52.190;4.422;2022-12-18T05:51:16;47.66;;;43.39;;
68942;SDS011;60852;52.190;4.422;2022-12-18T05:53:44;45.72;;;41.87;;
68942;SDS011;60852;52.190;4.422;2022-12-18T05:56:12;42.65;;;40.34;;
68942;SDS011;60852;52.190;4.422;2022-12-18T05:58:40;44.59;;;41.37;;
68942;SDS011;60852;52.190;4.422;2022-12-18T06:01:07;42.81;;;40.22;;
68942;SDS011;60852;52.190;4.422;2022-12-18T06:03:35;42.26;;;39.60;;
68942;SDS011;60852;52.190;4.422;2022-12-18T06:06:01;43.96;;;40.59;;
68942;SDS011;60852;52.190;4.422;2022-12-18T06:08:27;42.51;;;39.61;;
68942;SDS011;60852;52.190;4.422;2022-12-18T06:10:52;44.38;;;40.72;;
68942;SDS011;60852;52.190;4.422;2022-12-18T06:13:19;43.42;;;40.38;;
68942;SDS011;60852;52.190;4.422;2022-12-18T06:15:45;42.41;;;39.45;;
68942;SDS011;60852;52.190;4.422;2022-12-18T06:18:10;42.55;;;39.74;;
68942;SDS011;60852;52.190;4.422;2022-12-18T06:20:36;43.20;;;39.79;;
68942;SDS011;60852;52.190;4.422;2022-12-18T06:23:04;42.89;;;39.75;;
68942;SDS011;60852;52.190;4.422;2022-12-18T06:25:30;42.09;;;39.32;;
68942;SDS011;60852;52.190;4.422;2022-12-18T06:27:56;43.02;;;39.96;;
68942;SDS011;60852;52.190;4.422;2022-12-18T06:30:21;41.87;;;39.41;;
68942;SDS011;60852;52.190;4.422;2022-12-18T06:32:48;43.49;;;40.54;;
68942;SDS011;60852;52.190;4.422;2022-12-18T06:35:14;44.60;;;41.60;;
68942;SDS011;60852;52.190;4.422;2022-12-18T06:37:39;43.68;;;40.71;;
68942;SDS011;60852;52.190;4.422;2022-12-18T06:40:05;44.38;;;41.14;;
68942;SDS011;60852;52.190;4.422;2022-12-18T06:42:31;43.53;;;41.36;;
68942;SDS011;60852;52.190;4.422;2022-12-18T06:44:57;45.08;;;42.31;;
68942;SDS011;60852;52.190;4.422;2022-12-18T06:47:22;48.40;;;45.98;;
68942;SDS011;60852;52.190;4.422;2022-12-18T06:49:48;45.91;;;43.37;;
68942;SDS011;60852;52.190;4.422;2022-12-18T06:52:13;45.88;;;43.40;;
68942;SDS011;60852;52.190;4.422;2022-12-18T06:54:41;44.60;;;42.13;;
68942;SDS011;60852;52.190;4.422;2022-12-18T06:57:07;45.97;;;43.13;;
68942;SDS011;60852;52.190;4.422;2022-12-18T06:59:32;43.96;;;41.97;;
68942;SDS011;60852;52.190;4.422;2022-12-18T07:01:58;44.35;;;41.90;;
68942;SDS011;60852;52.190;4.422;2022-12-18T07:04:30;44.79;;;42.39;;
68942;SDS011;60852;52.190;4.422;2022-12-18T07:06:56;45.29;;;43.24;;
68942;SDS011;60852;52.190;4.422;2022-12-18T07:09:22;43.21;;;41.67;;
68942;SDS011;60852;52.190;4.422;2022-12-18T07:11:48;42.99;;;40.91;;
68942;SDS011;60852;52.190;4.422;2022-12-18T07:14:13;42.81;;;40.72;;
68942;SDS011;60852;52.190;4.422;2022-12-18T07:16:38;41.50;;;39.50;;
68942;SDS011;60852;52.190;4.422;2022-12-18T07:19:04;41.19;;;39.22;;
68942;SDS011;60852;52.190;4.422;2022-12-18T07:21:29;42.43;;;40.05;;
68942;SDS011;60852;52.190;4.422;2022-12-18T07:23:55;41.27;;;39.05;;
68942;SDS011;60852;52.190;4.422;2022-12-18T07:26:21;43.19;;;41.29;;
68942;SDS011;60852;52.190;4.422;2022-12-18T07:28:47;54.23;;;50.92;;
68942;SDS011;60852;52.190;4.422;2022-12-18T07:31:15;46.32;;;44.24;;
68942;SDS011;60852;52.190;4.422;2022-12-18T07:33:43;43.03;;;41.47;;
68942;SDS011;60852;52.190;4.422;2022-12-18T07:36:10;41.31;;;39.81;;
68942;SDS011;60852;52.190;4.422;2022-12-18T07:38:36;39.90;;;38.61;;
68942;SDS011;60852;52.190;4.422;2022-12-18T07:41:03;39.86;;;38.35;;
68942;SDS011;60852;52.190;4.422;2022-12-18T07:43:31;39.12;;;37.78;;
68942;SDS011;60852;52.190;4.422;2022-12-18T07:45:56;38.92;;;37.45;;
68942;SDS011;60852;52.190;4.422;2022-12-18T07:48:22;38.26;;;36.98;;
68942;SDS011;60852;52.190;4.422;2022-12-18T07:50:47;45.65;;;43.66;;
68942;SDS011;60852;52.190;4.422;2022-12-18T07:53:13;55.07;;;51.85;;
68942;SDS011;60852;52.190;4.422;2022-12-18T07:55:39;40.02;;;38.25;;
68942;SDS011;60852;52.190;4.422;2022-12-18T07:58:06;39.19;;;37.85;;
68942;SDS011;60852;52.190;4.422;2022-12-18T08:00:33;38.49;;;37.48;;
68942;SDS011;60852;52.190;4.422;2022-12-18T08:02:59;37.48;;;36.40;;
68942;SDS011;60852;52.190;4.422;2022-12-18T08:05:24;37.01;;;35.62;;
68942;SDS011;60852;52.190;4.422;2022-12-18T08:07:50;35.77;;;34.71;;
68942;SDS011;60852;52.190;4.422;2022-12-18T08:10:15;35.59;;;34.65;;
68942;SDS011;60852;52.190;4.422;2022-12-18T08:12:41;35.07;;;34.03;;
68942;SDS011;60852;52.190;4.422;2022-12-18T08:15:08;34.44;;;33.37;;
68942;SDS011;60852;52.190;4.422;2022-12-18T08:17:34;35.02;;;34.17;;
68942;SDS011;60852;52.190;4.422;2022-12-18T08:19:59;34.78;;;33.84;;
68942;SDS011;60852;52.190;4.422;2022-12-18T08:22:25;35.66;;;34.87;;
68942;SDS011;60852;52.190;4.422;2022-12-18T08:24:50;33.70;;;33.01;;
68942;SDS011;60852;52.190;4.422;2022-12-18T08:27:16;34.39;;;33.52;;
68942;SDS011;60852;52.190;4.422;2022-12-18T08:29:41;34.22;;;33.40;;
68942;SDS011;60852;52.190;4.422;2022-12-18T08:32:07;35.97;;;35.05;;
68942;SDS011;60852;52.190;4.422;2022-12-18T08:34:32;34.38;;;33.70;;
68942;SDS011;60852;52.190;4.422;2022-12-18T08:36:58;34.58;;;33.74;;
68942;SDS011;60852;52.190;4.422;2022-12-18T08:39:23;35.70;;;34.83;;
68942;SDS011;60852;52.190;4.422;2022-12-18T08:41:49;35.14;;;34.58;;
68942;SDS011;60852;52.190;4.422;2022-12-18T08:44:33;37.23;;;36.20;;
68942;SDS011;60852;52.190;4.422;2022-12-18T08:47:05;38.56;;;37.60;;
68942;SDS011;60852;52.190;4.422;2022-12-18T08:49:32;37.55;;;36.68;;
68942;SDS011;60852;52.190;4.422;2022-12-18T08:51:57;34.52;;;33.82;;
68942;SDS011;60852;52.190;4.422;2022-12-18T08:54:23;35.29;;;34.50;;
68942;SDS011;60852;52.190;4.422;2022-12-18T08:56:49;35.77;;;35.02;;
68942;SDS011;60852;52.190;4.422;2022-12-18T08:59:16;33.82;;;33.29;;
68942;SDS011;60852;52.190;4.422;2022-12-18T09:01:42;34.69;;;34.13;;
68942;SDS011;60852;52.190;4.422;2022-12-18T09:04:09;35.18;;;34.53;;
68942;SDS011;60852;52.190;4.422;2022-12-18T09:06:35;35.03;;;34.24;;
68942;SDS011;60852;52.190;4.422;2022-12-18T09:09:01;35.98;;;35.36;;
68942;SDS011;60852;52.190;4.422;2022-12-18T09:11:27;35.94;;;35.32;;
68942;SDS011;60852;52.190;4.422;2022-12-18T09:13:54;35.19;;;34.78;;
68942;SDS011;60852;52.190;4.422;2022-12-18T09:16:21;35.65;;;34.70;;
68942;SDS011;60852;52.190;4.422;2022-12-18T09:18:48;35.20;;;34.38;;
68942;SDS011;60852;52.190;4.422;2022-12-18T09:21:22;35.16;;;34.21;;
68942;SDS011;60852;52.190;4.422;2022-12-18T09:23:51;35.71;;;35.02;;
68942;SDS011;60852;52.190;4.422;2022-12-18T09:26:18;35.10;;;34.54;;
68942;SDS011;60852;52.190;4.422;2022-12-18T09:28:44;34.86;;;34.40;;
68942;SDS011;60852;52.190;4.422;2022-12-18T09:31:11;35.42;;;34.67;;
68942;SDS011;60852;52.190;4.422;2022-12-18T09:33:40;35.16;;;34.27;;
68942;SDS011;60852;52.190;4.422;2022-12-18T09:36:07;35.96;;;35.15;;
68942;SDS011;60852;52.190;4.422;2022-12-18T09:38:35;36.23;;;35.35;;
68942;SDS011;60852;52.190;4.422;2022-12-18T09:41:04;36.28;;;35.37;;
68942;SDS011;60852;52.190;4.422;2022-12-18T09:43:43;35.11;;;34.34;;
68942;SDS011;60852;52.190;4.422;2022-12-18T09:46:17;34.18;;;33.58;;
68942;SDS011;60852;52.190;4.422;2022-12-18T09:48:51;35.75;;;35.05;;
68942;SDS011;60852;52.190;4.422;2022-12-18T09:51:26;35.41;;;34.65;;
68942;SDS011;60852;52.190;4.422;2022-12-18T09:53:59;36.78;;;35.96;;
68942;SDS011;60852;52.190;4.422;2022-12-18T09:56:34;38.13;;;37.12;;
68942;SDS011;60852;52.190;4.422;2022-12-18T09:59:05;36.00;;;35.14;;
68942;SDS011;60852;52.190;4.422;2022-12-18T10:01:31;38.51;;;37.32;;
68942;SDS011;60852;52.190;4.422;2022-12-18T10:03:57;36.13;;;35.20;;
68942;SDS011;60852;52.190;4.422;2022-12-18T10:06:35;34.47;;;33.43;;
68942;SDS011;60852;52.190;4.422;2022-12-18T10:09:27;35.26;;;34.46;;
68942;SDS011;60852;52.190;4.422;2022-12-18T10:12:22;33.41;;;32.78;;
68942;SDS011;60852;52.190;4.422;2022-12-18T10:15:10;34.13;;;33.54;;
68942;SDS011;60852;52.190;4.422;2022-12-18T10:21:19;34.29;;;33.62;;
68942;SDS011;60852;52.190;4.422;2022-12-18T10:23:40;33.88;;;33.13;;
68942;SDS011;60852;52.190;4.422;2022-12-18T10:26:18;33.45;;;32.79;;
68942;SDS011;60852;52.190;4.422;2022-12-18T10:28:44;35.75;;;34.95;;
68942;SDS011;60852;52.190;4.422;2022-12-18T10:31:17;40.02;;;39.34;;
68942;SDS011;60852;52.190;4.422;2022-12-18T10:33:47;42.59;;;41.12;;
68942;SDS011;60852;52.190;4.422;2022-12-18T10:36:13;40.24;;;39.21;;
68942;SDS011;60852;52.190;4.422;2022-12-18T10:38:39;34.19;;;33.70;;
68942;SDS011;60852;52.190;4.422;2022-12-18T10:41:27;40.58;;;39.58;;
68942;SDS011;60852;52.190;4.422;2022-12-18T10:46:35;40.13;;;39.14;;
68942;SDS011;60852;52.190;4.422;2022-12-18T10:49:01;34.31;;;33.63;;
68942;SDS011;60852;52.190;4.422;2022-12-18T10:51:28;32.65;;;32.12;;
68942;SDS011;60852;52.190;4.422;2022-12-18T10:56:27;35.02;;;34.37;;
68942;SDS011;60852;52.190;4.422;2022-12-18T10:58:59;37.04;;;36.18;;
68942;SDS011;60852;52.190;4.422;2022-12-18T11:04:22;30.69;;;29.92;;
68942;SDS011;60852;52.190;4.422;2022-12-18T11:06:55;31.80;;;30.98;;
68942;SDS011;60852;52.190;4.422;2022-12-18T11:09:32;31.73;;;31.16;;
68942;SDS011;60852;52.190;4.422;2022-12-18T11:12:21;36.38;;;35.61;;
68942;SDS011;60852;52.190;4.422;2022-12-18T11:14:48;35.85;;;35.09;;
68942;SDS011;60852;52.190;4.422;2022-12-18T11:17:30;42.32;;;40.88;;
68942;SDS011;60852;52.190;4.422;2022-12-18T11:20:01;45.70;;;43.99;;
68942;SDS011;60852;52.190;4.422;2022-12-18T11:22:30;33.66;;;33.02;;
68942;SDS011;60852;52.190;4.422;2022-12-18T11:25:02;32.06;;;31.38;;
68942;SDS011;60852;52.190;4.422;2022-12-18T11:27:31;30.89;;;30.28;;
68942;SDS011;60852;52.190;4.422;2022-12-18T11:30:07;39.35;;;38.24;;
68942;SDS011;60852;52.190;4.422;2022-12-18T11:32:46;63.13;;;56.92;;
68942;SDS011;60852;52.190;4.422;2022-12-18T11:37:57;33.68;;;32.96;;
68942;SDS011;60852;52.190;4.422;2022-12-18T11:40:35;37.89;;;36.92;;
68942;SDS011;60852;52.190;4.422;2022-12-18T11:43:16;36.48;;;35.56;;
68942;SDS011;60852;52.190;4.422;2022-12-18T11:46:38;34.84;;;33.90;;
68942;SDS011;60852;52.190;4.422;2022-12-18T11:48:59;32.32;;;31.57;;
68942;SDS011;60852;52.190;4.422;2022-12-18T11:52:15;30.44;;;29.87;;
68942;SDS011;60852;52.190;4.422;2022-12-18T11:54:32;32.87;;;32.34;;
68942;SDS011;60852;52.190;4.422;2022-12-18T11:57:00;32.56;;;31.91;;
68942;SDS011;60852;52.190;4.422;2022-12-18T12:13:20;40.26;;;39.42;;
68942;SDS011;60852;52.190;4.422;2022-12-18T12:16:21;34.85;;;34.33;;
68942;SDS011;60852;52.190;4.422;2022-12-18T12:19:11;35.72;;;35.08;;
68942;SDS011;60852;52.190;4.422;2022-12-18T12:21:54;34.52;;;33.54;;
68942;SDS011;60852;52.190;4.422;2022-12-18T12:24:55;32.24;;;31.36;;
68942;SDS011;60852;52.190;4.422;2022-12-18T12:36:15;32.84;;;32.04;;
68942;SDS011;60852;52.190;4.422;2022-12-18T12:38:49;62.54;;;61.08;;
68942;SDS011;60852;52.190;4.422;2022-12-18T12:41:21;73.87;;;72.54;;
68942;SDS011;60852;52.190;4.422;2022-12-18T12:44:15;60.23;;;58.94;;
68942;SDS011;60852;52.190;4.422;2022-12-18T12:46:48;75.78;;;73.97;;
68942;SDS011;60852;52.190;4.422;2022-12-18T12:49:17;108.44;;;105.91;;
68942;SDS011;60852;52.190;4.422;2022-12-18T12:51:52;114.79;;;112.06;;
68942;SDS011;60852;52.190;4.422;2022-12-18T12:54:25;64.58;;;63.21;;
68942;SDS011;60852;52.190;4.422;2022-12-18T13:08:26;31.88;;;31.21;;
68942;SDS011;60852;52.190;4.422;2022-12-18T13:10:54;32.57;;;31.72;;
68942;SDS011;60852;52.190;4.422;2022-12-18T13:13:54;31.68;;;31.01;;
68942;SDS011;60852;52.190;4.422;2022-12-18T13:16:22;33.41;;;32.50;;
68942;SDS011;60852;52.190;4.422;2022-12-18T13:18:53;32.78;;;32.27;;
68942;SDS011;60852;52.190;4.422;2022-12-18T13:21:33;34.46;;;33.52;;
68942;SDS011;60852;52.190;4.422;2022-12-18T13:24:15;33.60;;;32.80;;
68942;SDS011;60852;52.190;4.422;2022-12-18T13:26:52;32.97;;;32.19;;
68942;SDS011;60852;52.190;4.422;2022-12-18T13:32:18;31.65;;;31.04;;
68942;SDS011;60852;52.190;4.422;2022-12-18T13:34:46;32.21;;;31.35;;
68942;SDS011;60852;52.190;4.422;2022-12-18T13:37:34;31.91;;;31.17;;
68942;SDS011;60852;52.190;4.422;2022-12-18T13:43:14;31.74;;;30.96;;
68942;SDS011;60852;52.190;4.422;2022-12-18T13:45:47;32.10;;;31.27;;
68942;SDS011;60852;52.190;4.422;2022-12-18T13:48:24;31.94;;;31.03;;
68942;SDS011;60852;52.190;4.422;2022-12-18T13:50:56;31.48;;;30.77;;
68942;SDS011;60852;52.190;4.422;2022-12-18T13:53:44;30.98;;;30.37;;
68942;SDS011;60852;52.190;4.422;2022-12-18T13:56:21;32.04;;;31.39;;
68942;SDS011;60852;52.190;4.422;2022-12-18T13:59:18;31.81;;;31.06;;
68942;SDS011;60852;52.190;4.422;2022-12-18T14:01:49;31.14;;;30.50;;
68942;SDS011;60852;52.190;4.422;2022-12-18T14:04:27;31.79;;;31.08;;
68942;SDS011;60852;52.190;4.422;2022-12-18T14:06:56;31.74;;;30.75;;
68942;SDS011;60852;52.190;4.422;2022-12-18T14:09:29;32.56;;;31.90;;
68942;SDS011;60852;52.190;4.422;2022-12-18T14:11:59;32.98;;;32.26;;
68942;SDS011;60852;52.190;4.422;2022-12-18T14:14:45;33.71;;;33.01;;
68942;SDS011;60852;52.190;4.422;2022-12-18T14:17:14;34.21;;;33.49;;
68942;SDS011;60852;52.190;4.422;2022-12-18T14:19:41;38.14;;;37.36;;
68942;SDS011;60852;52.190;4.422;2022-12-18T14:22:19;42.02;;;41.13;;
68942;SDS011;60852;52.190;4.422;2022-12-18T14:25:10;32.13;;;31.53;;
68942;SDS011;60852;52.190;4.422;2022-12-18T14:27:43;31.48;;;30.81;;
68942;SDS011;60852;52.190;4.422;2022-12-18T14:30:34;30.97;;;30.24;;
68942;SDS011;60852;52.190;4.422;2022-12-18T14:33:09;33.06;;;32.03;;
68942;SDS011;60852;52.190;4.422;2022-12-18T14:40:54;31.90;;;31.24;;
68942;SDS011;60852;52.190;4.422;2022-12-18T14:43:38;33.03;;;31.88;;
68942;SDS011;60852;52.190;4.422;2022-12-18T14:46:06;32.92;;;32.03;;
68942;SDS011;60852;52.190;4.422;2022-12-18T14:48:53;33.21;;;32.43;;
68942;SDS011;60852;52.190;4.422;2022-12-18T14:51:20;33.10;;;32.28;;
68942;SDS011;60852;52.190;4.422;2022-12-18T14:56:27;31.89;;;31.47;;
68942;SDS011;60852;52.190;4.422;2022-12-18T14:58:57;32.04;;;31.21;;
68942;SDS011;60852;52.190;4.422;2022-12-18T15:01:33;32.44;;;31.88;;
68942;SDS011;60852;52.190;4.422;2022-12-18T15:04:31;31.68;;;31.23;;
68942;SDS011;60852;52.190;4.422;2022-12-18T15:07:11;32.09;;;31.48;;
68942;SDS011;60852;52.190;4.422;2022-12-18T15:09:43;31.76;;;31.12;;
68942;SDS011;60852;52.190;4.422;2022-12-18T15:18:01;33.11;;;32.29;;
68942;SDS011;60852;52.190;4.422;2022-12-18T15:20:41;33.82;;;32.94;;
68942;SDS011;60852;52.190;4.422;2022-12-18T15:23:30;34.01;;;33.06;;
68942;SDS011;60852;52.190;4.422;2022-12-18T15:26:12;37.75;;;36.84;;
68942;SDS011;60852;52.190;4.422;2022-12-18T15:34:19;36.46;;;35.70;;
68942;SDS011;60852;52.190;4.422;2022-12-18T15:36:30;38.68;;;37.51;;
68942;SDS011;60852;52.190;4.422;2022-12-18T15:38:56;36.05;;;35.09;;
68942;SDS011;60852;52.190;4.422;2022-12-18T15:41:22;34.14;;;33.39;;
68942;SDS011;60852;52.190;4.422;2022-12-18T15:43:49;35.43;;;34.75;;
68942;SDS011;60852;52.190;4.422;2022-12-18T15:46:18;36.03;;;35.16;;
68942;SDS011;60852;52.190;4.422;2022-12-18T15:48:49;38.15;;;37.27;;
68942;SDS011;60852;52.190;4.422;2022-12-18T15:51:33;39.13;;;38.12;;
68942;SDS011;60852;52.190;4.422;2022-12-18T15:54:02;38.07;;;37.10;;
68942;SDS011;60852;52.190;4.422;2022-12-18T15:56:30;34.61;;;33.98;;
68942;SDS011;60852;52.190;4.422;2022-12-18T15:59:19;40.27;;;39.19;;
68942;SDS011;60852;52.190;4.422;2022-12-18T16:01:49;134.39;;;123.32;;
68942;SDS011;60852;52.190;4.422;2022-12-18T16:04:18;60.70;;;58.65;;
68942;SDS011;60852;52.190;4.422;2022-12-18T16:06:45;44.43;;;43.48;;
68942;SDS011;60852;52.190;4.422;2022-12-18T16:09:12;41.10;;;40.23;;
68942;SDS011;60852;52.190;4.422;2022-12-18T16:11:37;37.52;;;36.54;;
68942;SDS011;60852;52.190;4.422;2022-12-18T16:16:48;34.28;;;33.74;;
68942;SDS011;60852;52.190;4.422;2022-12-18T16:19:15;34.83;;;33.80;;